Scenic Hill, Indiana
Current Conditions -  °F | °C
As of 1:35 AM on Friday 31 Oct 2014 (Local Time) from KDCY Reporting Station
Light Rain Light Rain  
Wind Chill: 46°   Ceiling: 5500
Heat Index: 46°   Visibility: 7mi
Dew Point: 45°   Wind: 3mph
Humidity: 97%   Direction: 360°N
Pressure: 30.03"   Gusts: NA
Location:  38.6074°N, 86.9234°W
Report Text: KDCY 310635Z AUTO 36003KT 7SM -RA SCT048 OVC055 08/07 A3003 RMK AO2 P0002 T00770073
Loading
Personal Weather Stations






























Interactive Weather Map
Tropical Storm Tracking
New forecast layout! Learn more

10-Day Weather Forecast

Advertisements
Track Severe Weather on mobile